sensor_id;sensor_type;location;lat;lon;timestamp;P1;durP1;ratioP1;P2;durP2;ratioP2
44048;SDS011;29717;47.028;15.470;2022-08-19T00:00:39;10.60;;;3.67;;
44048;SDS011;29717;47.028;15.470;2022-08-19T00:03:06;8.40;;;3.38;;
44048;SDS011;29717;47.028;15.470;2022-08-19T00:05:33;5.15;;;3.00;;
44048;SDS011;29717;47.028;15.470;2022-08-19T00:08:01;5.70;;;2.85;;
44048;SDS011;29717;47.028;15.470;2022-08-19T00:10:28;8.63;;;3.28;;
44048;SDS011;29717;47.028;15.470;2022-08-19T00:12:55;9.13;;;3.50;;
44048;SDS011;29717;47.028;15.470;2022-08-19T00:15:22;9.85;;;3.10;;
44048;SDS011;29717;47.028;15.470;2022-08-19T00:17:49;6.97;;;3.00;;
44048;SDS011;29717;47.028;15.470;2022-08-19T00:20:17;8.18;;;3.60;;
44048;SDS011;29717;47.028;15.470;2022-08-19T00:22:44;6.60;;;3.08;;
44048;SDS011;29717;47.028;15.470;2022-08-19T00:25:12;9.05;;;3.42;;
44048;SDS011;29717;47.028;15.470;2022-08-19T00:27:39;9.55;;;2.88;;
44048;SDS011;29717;47.028;15.470;2022-08-19T00:30:06;7.20;;;3.30;;
44048;SDS011;29717;47.028;15.470;2022-08-19T00:32:35;8.13;;;3.50;;
44048;SDS011;29717;47.028;15.470;2022-08-19T00:35:02;10.80;;;3.40;;
44048;SDS011;29717;47.028;15.470;2022-08-19T00:37:29;8.18;;;3.28;;
44048;SDS011;29717;47.028;15.470;2022-08-19T00:39:56;10.27;;;3.40;;
44048;SDS011;29717;47.028;15.470;2022-08-19T00:42:24;10.95;;;3.75;;
44048;SDS011;29717;47.028;15.470;2022-08-19T00:44:53;7.13;;;3.25;;
44048;SDS011;29717;47.028;15.470;2022-08-19T00:47:20;5.75;;;3.28;;
44048;SDS011;29717;47.028;15.470;2022-08-19T00:49:48;11.57;;;3.55;;
44048;SDS011;29717;47.028;15.470;2022-08-19T00:52:18;9.05;;;3.40;;
44048;SDS011;29717;47.028;15.470;2022-08-19T00:54:45;8.98;;;3.70;;
44048;SDS011;29717;47.028;15.470;2022-08-19T00:57:15;11.40;;;3.53;;
44048;SDS011;29717;47.028;15.470;2022-08-19T00:59:44;8.32;;;3.50;;
44048;SDS011;29717;47.028;15.470;2022-08-19T02:03:11;10.52;;;5.30;;
44048;SDS011;29717;47.028;15.470;2022-08-19T02:05:38;9.98;;;5.55;;
44048;SDS011;29717;47.028;15.470;2022-08-19T02:08:05;9.23;;;5.18;;
44048;SDS011;29717;47.028;15.470;2022-08-19T02:10:32;13.30;;;5.55;;
44048;SDS011;29717;47.028;15.470;2022-08-19T02:12:59;11.15;;;5.45;;
44048;SDS011;29717;47.028;15.470;2022-08-19T02:15:26;11.63;;;5.20;;
44048;SDS011;29717;47.028;15.470;2022-08-19T02:17:52;13.07;;;5.30;;
44048;SDS011;29717;47.028;15.470;2022-08-19T02:20:20;12.65;;;5.65;;
44048;SDS011;29717;47.028;15.470;2022-08-19T02:22:47;13.07;;;5.25;;
44048;SDS011;29717;47.028;15.470;2022-08-19T02:25:14;13.23;;;6.20;;
44048;SDS011;29717;47.028;15.470;2022-08-19T02:27:41;12.10;;;5.90;;
44048;SDS011;29717;47.028;15.470;2022-08-19T02:30:11;11.35;;;4.72;;
44048;SDS011;29717;47.028;15.470;2022-08-19T02:32:39;11.07;;;5.43;;
44048;SDS011;29717;47.028;15.470;2022-08-19T02:35:07;12.07;;;5.50;;
44048;SDS011;29717;47.028;15.470;2022-08-19T02:37:35;9.35;;;5.13;;
44048;SDS011;29717;47.028;15.470;2022-08-19T02:40:19;9.27;;;5.18;;
44048;SDS011;29717;47.028;15.470;2022-08-19T02:42:46;9.60;;;5.20;;
44048;SDS011;29717;47.028;15.470;2022-08-19T02:45:13;8.23;;;5.15;;
44048;SDS011;29717;47.028;15.470;2022-08-19T02:47:40;11.57;;;5.43;;
44048;SDS011;29717;47.028;15.470;2022-08-19T02:50:08;8.73;;;4.85;;
44048;SDS011;29717;47.028;15.470;2022-08-19T02:52:36;7.85;;;4.97;;
44048;SDS011;29717;47.028;15.470;2022-08-19T02:55:03;8.57;;;5.22;;
44048;SDS011;29717;47.028;15.470;2022-08-19T02:57:30;10.02;;;5.10;;
44048;SDS011;29717;47.028;15.470;2022-08-19T02:59:57;12.05;;;4.93;;
44048;SDS011;29717;47.028;15.470;2022-08-19T03:02:24;8.15;;;4.40;;
44048;SDS011;29717;47.028;15.470;2022-08-19T03:04:52;9.82;;;4.30;;
44048;SDS011;29717;47.028;15.470;2022-08-19T03:07:19;10.35;;;4.28;;
44048;SDS011;29717;47.028;15.470;2022-08-19T03:09:47;13.05;;;3.67;;
44048;SDS011;29717;47.028;15.470;2022-08-19T03:12:13;10.77;;;4.70;;
44048;SDS011;29717;47.028;15.470;2022-08-19T03:14:40;11.43;;;4.10;;
44048;SDS011;29717;47.028;15.470;2022-08-19T03:17:07;12.05;;;4.03;;
44048;SDS011;29717;47.028;15.470;2022-08-19T03:19:34;7.82;;;3.60;;
44048;SDS011;29717;47.028;15.470;2022-08-19T03:22:01;10.02;;;4.15;;
44048;SDS011;29717;47.028;15.470;2022-08-19T03:24:29;11.57;;;3.72;;
44048;SDS011;29717;47.028;15.470;2022-08-19T03:26:57;9.73;;;3.83;;
44048;SDS011;29717;47.028;15.470;2022-08-19T03:29:25;10.93;;;4.13;;
44048;SDS011;29717;47.028;15.470;2022-08-19T03:31:51;10.50;;;3.70;;
44048;SDS011;29717;47.028;15.470;2022-08-19T03:34:21;7.90;;;3.95;;
44048;SDS011;29717;47.028;15.470;2022-08-19T03:36:48;10.32;;;4.13;;
44048;SDS011;29717;47.028;15.470;2022-08-19T03:39:15;11.77;;;3.83;;
44048;SDS011;29717;47.028;15.470;2022-08-19T03:41:43;10.00;;;3.72;;
44048;SDS011;29717;47.028;15.470;2022-08-19T03:44:11;10.23;;;3.83;;
44048;SDS011;29717;47.028;15.470;2022-08-19T03:46:38;8.20;;;3.55;;
44048;SDS011;29717;47.028;15.470;2022-08-19T03:49:05;9.77;;;3.75;;
44048;SDS011;29717;47.028;15.470;2022-08-19T03:51:33;10.63;;;3.70;;
44048;SDS011;29717;47.028;15.470;2022-08-19T03:54:02;8.48;;;3.60;;
44048;SDS011;29717;47.028;15.470;2022-08-19T03:56:29;11.85;;;3.97;;
44048;SDS011;29717;47.028;15.470;2022-08-19T03:58:55;10.77;;;4.05;;
44048;SDS011;29717;47.028;15.470;2022-08-19T04:01:25;9.13;;;4.00;;
44048;SDS011;29717;47.028;15.470;2022-08-19T04:03:52;9.85;;;4.18;;
44048;SDS011;29717;47.028;15.470;2022-08-19T04:06:20;13.13;;;4.75;;
44048;SDS011;29717;47.028;15.470;2022-08-19T04:08:48;10.40;;;4.45;;
44048;SDS011;29717;47.028;15.470;2022-08-19T04:11:16;10.07;;;4.65;;
44048;SDS011;29717;47.028;15.470;2022-08-19T04:13:43;10.35;;;4.70;;
44048;SDS011;29717;47.028;15.470;2022-08-19T04:16:10;11.27;;;4.47;;
44048;SDS011;29717;47.028;15.470;2022-08-19T04:18:38;14.30;;;5.45;;
44048;SDS011;29717;47.028;15.470;2022-08-19T04:21:07;12.45;;;4.85;;
44048;SDS011;29717;47.028;15.470;2022-08-19T04:23:34;13.38;;;4.85;;
44048;SDS011;29717;47.028;15.470;2022-08-19T04:26:02;10.52;;;4.32;;
44048;SDS011;29717;47.028;15.470;2022-08-19T04:28:28;9.55;;;4.40;;
44048;SDS011;29717;47.028;15.470;2022-08-19T04:30:55;12.70;;;4.70;;
44048;SDS011;29717;47.028;15.470;2022-08-19T04:33:24;9.85;;;4.38;;
44048;SDS011;29717;47.028;15.470;2022-08-19T04:35:52;10.43;;;4.43;;
44048;SDS011;29717;47.028;15.470;2022-08-19T04:38:20;12.73;;;5.18;;
44048;SDS011;29717;47.028;15.470;2022-08-19T04:40:49;11.32;;;4.43;;
44048;SDS011;29717;47.028;15.470;2022-08-19T04:43:34;10.30;;;4.40;;
44048;SDS011;29717;47.028;15.470;2022-08-19T04:46:03;11.05;;;4.65;;
44048;SDS011;29717;47.028;15.470;2022-08-19T04:48:30;8.88;;;4.40;;
44048;SDS011;29717;47.028;15.470;2022-08-19T04:50:58;10.48;;;4.43;;
44048;SDS011;29717;47.028;15.470;2022-08-19T04:53:26;7.18;;;4.22;;
44048;SDS011;29717;47.028;15.470;2022-08-19T04:55:54;8.13;;;4.60;;
44048;SDS011;29717;47.028;15.470;2022-08-19T04:58:21;9.35;;;4.47;;
44048;SDS011;29717;47.028;15.470;2022-08-19T05:00:48;10.95;;;3.78;;
44048;SDS011;29717;47.028;15.470;2022-08-19T05:03:16;8.10;;;4.10;;
44048;SDS011;29717;47.028;15.470;2022-08-19T05:05:43;16.65;;;4.72;;
44048;SDS011;29717;47.028;15.470;2022-08-19T05:10:47;8.85;;;4.30;;
44048;SDS011;29717;47.028;15.470;2022-08-19T05:13:14;10.57;;;4.05;;
44048;SDS011;29717;47.028;15.470;2022-08-19T05:15:42;10.88;;;4.07;;
44048;SDS011;29717;47.028;15.470;2022-08-19T05:18:09;9.63;;;4.07;;
44048;SDS011;29717;47.028;15.470;2022-08-19T05:21:08;6.57;;;3.85;;
44048;SDS011;29717;47.028;15.470;2022-08-19T05:23:53;8.68;;;4.22;;
44048;SDS011;29717;47.028;15.470;2022-08-19T05:26:21;13.98;;;4.70;;
44048;SDS011;29717;47.028;15.470;2022-08-19T05:28:48;12.88;;;4.97;;
44048;SDS011;29717;47.028;15.470;2022-08-19T05:31:15;9.55;;;4.47;;
44048;SDS011;29717;47.028;15.470;2022-08-19T05:33:42;9.02;;;4.72;;
44048;SDS011;29717;47.028;15.470;2022-08-19T05:36:08;11.75;;;4.70;;
44048;SDS011;29717;47.028;15.470;2022-08-19T05:38:35;10.15;;;4.70;;
44048;SDS011;29717;47.028;15.470;2022-08-19T05:41:05;10.85;;;4.40;;
44048;SDS011;29717;47.028;15.470;2022-08-19T05:43:34;10.75;;;4.30;;
44048;SDS011;29717;47.028;15.470;2022-08-19T05:46:01;9.23;;;4.43;;
44048;SDS011;29717;47.028;15.470;2022-08-19T05:48:31;11.13;;;4.43;;
44048;SDS011;29717;47.028;15.470;2022-08-19T05:51:02;13.88;;;4.50;;
44048;SDS011;29717;47.028;15.470;2022-08-19T05:53:30;10.15;;;4.25;;
44048;SDS011;29717;47.028;15.470;2022-08-19T05:55:57;9.73;;;4.35;;
44048;SDS011;29717;47.028;15.470;2022-08-19T05:58:24;11.73;;;4.40;;
44048;SDS011;29717;47.028;15.470;2022-08-19T06:00:53;8.75;;;4.90;;
44048;SDS011;29717;47.028;15.470;2022-08-19T06:03:19;10.07;;;4.10;;
44048;SDS011;29717;47.028;15.470;2022-08-19T06:05:46;12.85;;;4.45;;
44048;SDS011;29717;47.028;15.470;2022-08-19T06:08:13;10.95;;;4.00;;
44048;SDS011;29717;47.028;15.470;2022-08-19T06:10:40;10.93;;;3.65;;
44048;SDS011;29717;47.028;15.470;2022-08-19T06:13:07;13.63;;;3.85;;
44048;SDS011;29717;47.028;15.470;2022-08-19T06:15:34;6.22;;;3.53;;
44048;SDS011;29717;47.028;15.470;2022-08-19T06:18:02;5.72;;;3.33;;
44048;SDS011;29717;47.028;15.470;2022-08-19T06:20:29;7.05;;;3.40;;
44048;SDS011;29717;47.028;15.470;2022-08-19T06:22:57;9.98;;;3.17;;
44048;SDS011;29717;47.028;15.470;2022-08-19T06:25:24;6.63;;;4.13;;
44048;SDS011;29717;47.028;15.470;2022-08-19T06:27:51;11.90;;;3.95;;
44048;SDS011;29717;47.028;15.470;2022-08-19T06:30:18;10.45;;;4.13;;
44048;SDS011;29717;47.028;15.470;2022-08-19T06:32:45;9.88;;;4.00;;
44048;SDS011;29717;47.028;15.470;2022-08-19T06:35:13;8.85;;;3.88;;
44048;SDS011;29717;47.028;15.470;2022-08-19T06:37:40;7.75;;;3.53;;
44048;SDS011;29717;47.028;15.470;2022-08-19T06:40:08;9.80;;;3.60;;
44048;SDS011;29717;47.028;15.470;2022-08-19T06:42:36;9.57;;;3.85;;
44048;SDS011;29717;47.028;15.470;2022-08-19T06:45:03;9.60;;;3.85;;
44048;SDS011;29717;47.028;15.470;2022-08-19T06:47:31;10.50;;;3.40;;
44048;SDS011;29717;47.028;15.470;2022-08-19T06:49:59;8.30;;;3.70;;
44048;SDS011;29717;47.028;15.470;2022-08-19T06:52:29;11.45;;;4.07;;
44048;SDS011;29717;47.028;15.470;2022-08-19T06:54:56;15.25;;;3.92;;
44048;SDS011;29717;47.028;15.470;2022-08-19T06:57:23;6.05;;;3.22;;
44048;SDS011;29717;47.028;15.470;2022-08-19T06:59:50;9.13;;;3.55;;
44048;SDS011;29717;47.028;15.470;2022-08-19T07:02:17;9.00;;;4.53;;
44048;SDS011;29717;47.028;15.470;2022-08-19T07:04:44;11.98;;;4.57;;
44048;SDS011;29717;47.028;15.470;2022-08-19T07:07:11;15.73;;;4.60;;
44048;SDS011;29717;47.028;15.470;2022-08-19T07:09:40;11.95;;;4.45;;
44048;SDS011;29717;47.028;15.470;2022-08-19T07:12:09;8.63;;;3.45;;
44048;SDS011;29717;47.028;15.470;2022-08-19T07:14:36;11.20;;;4.00;;
44048;SDS011;29717;47.028;15.470;2022-08-19T07:17:04;11.73;;;4.47;;
44048;SDS011;29717;47.028;15.470;2022-08-19T07:19:31;12.13;;;3.50;;
44048;SDS011;29717;47.028;15.470;2022-08-19T07:22:00;12.10;;;4.32;;
44048;SDS011;29717;47.028;15.470;2022-08-19T07:24:27;14.20;;;5.03;;
44048;SDS011;29717;47.028;15.470;2022-08-19T07:26:56;13.27;;;5.30;;
44048;SDS011;29717;47.028;15.470;2022-08-19T07:29:26;14.32;;;5.03;;
44048;SDS011;29717;47.028;15.470;2022-08-19T07:31:54;12.00;;;4.68;;
44048;SDS011;29717;47.028;15.470;2022-08-19T07:34:21;14.85;;;6.20;;
44048;SDS011;29717;47.028;15.470;2022-08-19T07:36:49;11.95;;;5.43;;
44048;SDS011;29717;47.028;15.470;2022-08-19T07:39:17;13.43;;;4.57;;
44048;SDS011;29717;47.028;15.470;2022-08-19T07:41:44;10.23;;;4.25;;
44048;SDS011;29717;47.028;15.470;2022-08-19T07:44:12;10.15;;;4.53;;
44048;SDS011;29717;47.028;15.470;2022-08-19T07:46:41;14.68;;;4.30;;
44048;SDS011;29717;47.028;15.470;2022-08-19T07:49:09;9.90;;;3.42;;
44048;SDS011;29717;47.028;15.470;2022-08-19T07:51:39;6.50;;;1.90;;
44048;SDS011;29717;47.028;15.470;2022-08-19T07:54:06;4.90;;;1.80;;
44048;SDS011;29717;47.028;15.470;2022-08-19T07:56:33;2.63;;;1.25;;
44048;SDS011;29717;47.028;15.470;2022-08-19T07:59:00;3.55;;;1.50;;
44048;SDS011;29717;47.028;15.470;2022-08-19T08:01:28;3.60;;;1.42;;
44048;SDS011;29717;47.028;15.470;2022-08-19T08:03:56;3.17;;;1.55;;
44048;SDS011;29717;47.028;15.470;2022-08-19T08:06:41;4.28;;;1.60;;
44048;SDS011;29717;47.028;15.470;2022-08-19T08:09:40;3.08;;;1.38;;
44048;SDS011;29717;47.028;15.470;2022-08-19T08:12:08;2.38;;;1.45;;
44048;SDS011;29717;47.028;15.470;2022-08-19T08:14:37;3.22;;;1.40;;
44048;SDS011;29717;47.028;15.470;2022-08-19T08:17:06;4.85;;;1.60;;
44048;SDS011;29717;47.028;15.470;2022-08-19T08:19:33;6.03;;;1.85;;
44048;SDS011;29717;47.028;15.470;2022-08-19T08:22:00;3.75;;;1.70;;
44048;SDS011;29717;47.028;15.470;2022-08-19T08:24:28;6.68;;;1.67;;
44048;SDS011;29717;47.028;15.470;2022-08-19T08:26:57;3.63;;;1.60;;
44048;SDS011;29717;47.028;15.470;2022-08-19T08:29:24;4.22;;;1.63;;
44048;SDS011;29717;47.028;15.470;2022-08-19T08:31:51;6.35;;;1.80;;
44048;SDS011;29717;47.028;15.470;2022-08-19T08:34:20;6.03;;;1.58;;
44048;SDS011;29717;47.028;15.470;2022-08-19T08:36:47;3.35;;;1.67;;
44048;SDS011;29717;47.028;15.470;2022-08-19T08:39:14;6.72;;;2.05;;
44048;SDS011;29717;47.028;15.470;2022-08-19T08:41:44;4.57;;;2.00;;
44048;SDS011;29717;47.028;15.470;2022-08-19T08:44:14;5.82;;;1.90;;
44048;SDS011;29717;47.028;15.470;2022-08-19T08:46:43;3.95;;;1.60;;
44048;SDS011;29717;47.028;15.470;2022-08-19T08:49:15;4.90;;;1.95;;
44048;SDS011;29717;47.028;15.470;2022-08-19T08:51:46;6.45;;;1.52;;
44048;SDS011;29717;47.028;15.470;2022-08-19T08:54:15;5.57;;;2.10;;
44048;SDS011;29717;47.028;15.470;2022-08-19T08:56:44;3.88;;;1.58;;
44048;SDS011;29717;47.028;15.470;2022-08-19T08:59:12;6.28;;;1.88;;
44048;SDS011;29717;47.028;15.470;2022-08-19T09:01:42;3.28;;;1.67;;
44048;SDS011;29717;47.028;15.470;2022-08-19T09:04:09;5.30;;;1.80;;
44048;SDS011;29717;47.028;15.470;2022-08-19T09:06:39;6.07;;;1.90;;
44048;SDS011;29717;47.028;15.470;2022-08-19T09:09:12;5.72;;;1.80;;
44048;SDS011;29717;47.028;15.470;2022-08-19T09:11:46;4.72;;;2.00;;
44048;SDS011;29717;47.028;15.470;2022-08-19T09:14:16;5.50;;;2.17;;
44048;SDS011;29717;47.028;15.470;2022-08-19T09:16:44;4.07;;;2.05;;
44048;SDS011;29717;47.028;15.470;2022-08-19T09:19:11;5.82;;;1.80;;
44048;SDS011;29717;47.028;15.470;2022-08-19T09:21:38;6.57;;;2.13;;
44048;SDS011;29717;47.028;15.470;2022-08-19T09:24:05;3.40;;;1.80;;
44048;SDS011;29717;47.028;15.470;2022-08-19T09:26:33;7.05;;;2.08;;
44048;SDS011;29717;47.028;15.470;2022-08-19T09:29:00;5.43;;;2.25;;
44048;SDS011;29717;47.028;15.470;2022-08-19T09:31:30;4.22;;;2.17;;
44048;SDS011;29717;47.028;15.470;2022-08-19T09:33:57;6.13;;;2.55;;
44048;SDS011;29717;47.028;15.470;2022-08-19T09:36:25;4.72;;;2.00;;
44048;SDS011;29717;47.028;15.470;2022-08-19T09:38:54;4.40;;;2.40;;
44048;SDS011;29717;47.028;15.470;2022-08-19T09:41:22;7.63;;;3.22;;
44048;SDS011;29717;47.028;15.470;2022-08-19T09:43:51;6.80;;;3.15;;
44048;SDS011;29717;47.028;15.470;2022-08-19T09:46:21;7.72;;;3.63;;
44048;SDS011;29717;47.028;15.470;2022-08-19T09:48:49;8.52;;;3.70;;
44048;SDS011;29717;47.028;15.470;2022-08-19T09:51:17;7.10;;;3.67;;
44048;SDS011;29717;47.028;15.470;2022-08-19T09:53:45;6.10;;;3.25;;
44048;SDS011;29717;47.028;15.470;2022-08-19T09:56:12;7.45;;;3.30;;
44048;SDS011;29717;47.028;15.470;2022-08-19T09:58:39;6.80;;;3.40;;
44048;SDS011;29717;47.028;15.470;2022-08-19T10:01:08;6.78;;;2.60;;
44048;SDS011;29717;47.028;15.470;2022-08-19T10:03:36;9.35;;;3.30;;
44048;SDS011;29717;47.028;15.470;2022-08-19T10:06:04;8.90;;;3.47;;
44048;SDS011;29717;47.028;15.470;2022-08-19T10:08:32;9.07;;;3.33;;
44048;SDS011;29717;47.028;15.470;2022-08-19T10:10:59;8.15;;;3.13;;
44048;SDS011;29717;47.028;15.470;2022-08-19T10:13:28;8.82;;;3.30;;
44048;SDS011;29717;47.028;15.470;2022-08-19T10:15:56;7.93;;;3.10;;
44048;SDS011;29717;47.028;15.470;2022-08-19T10:18:24;6.10;;;3.15;;
44048;SDS011;29717;47.028;15.470;2022-08-19T10:20:51;5.85;;;3.28;;
44048;SDS011;29717;47.028;15.470;2022-08-19T10:23:19;5.68;;;3.28;;
44048;SDS011;29717;47.028;15.470;2022-08-19T10:25:46;8.25;;;3.70;;
44048;SDS011;29717;47.028;15.470;2022-08-19T10:28:12;8.25;;;3.60;;
44048;SDS011;29717;47.028;15.470;2022-08-19T10:30:39;10.75;;;4.00;;
44048;SDS011;29717;47.028;15.470;2022-08-19T10:33:06;6.90;;;3.30;;
44048;SDS011;29717;47.028;15.470;2022-08-19T10:35:35;7.18;;;2.88;;
44048;SDS011;29717;47.028;15.470;2022-08-19T10:38:03;10.02;;;6.35;;
44048;SDS011;29717;47.028;15.470;2022-08-19T10:40:30;5.93;;;2.90;;
44048;SDS011;29717;47.028;15.470;2022-08-19T10:42:57;9.25;;;2.92;;
44048;SDS011;29717;47.028;15.470;2022-08-19T10:45:23;6.07;;;2.67;;
44048;SDS011;29717;47.028;15.470;2022-08-19T10:47:51;8.07;;;2.80;;
44048;SDS011;29717;47.028;15.470;2022-08-19T10:50:19;8.45;;;3.28;;
44048;SDS011;29717;47.028;15.470;2022-08-19T10:53:05;7.60;;;2.90;;
44048;SDS011;29717;47.028;15.470;2022-08-19T10:55:33;6.15;;;3.00;;
44048;SDS011;29717;47.028;15.470;2022-08-19T10:58:20;6.53;;;3.17;;
44048;SDS011;29717;47.028;15.470;2022-08-19T11:00:51;7.72;;;3.17;;
44048;SDS011;29717;47.028;15.470;2022-08-19T11:03:18;7.88;;;2.80;;
44048;SDS011;29717;47.028;15.470;2022-08-19T11:05:45;8.30;;;3.10;;
44048;SDS011;29717;47.028;15.470;2022-08-19T11:08:15;7.18;;;2.80;;
44048;SDS011;29717;47.028;15.470;2022-08-19T11:10:42;5.18;;;2.72;;
44048;SDS011;29717;47.028;15.470;2022-08-19T11:13:09;6.43;;;2.72;;
44048;SDS011;29717;47.028;15.470;2022-08-19T11:15:36;10.70;;;3.22;;
44048;SDS011;29717;47.028;15.470;2022-08-19T11:18:03;7.75;;;2.85;;
44048;SDS011;29717;47.028;15.470;2022-08-19T11:20:30;6.63;;;2.90;;
44048;SDS011;29717;47.028;15.470;2022-08-19T11:22:58;7.32;;;2.50;;
44048;SDS011;29717;47.028;15.470;2022-08-19T11:25:26;8.10;;;2.80;;
44048;SDS011;29717;47.028;15.470;2022-08-19T11:27:53;6.60;;;2.30;;
44048;SDS011;29717;47.028;15.470;2022-08-19T11:30:21;6.68;;;2.58;;
44048;SDS011;29717;47.028;15.470;2022-08-19T11:32:47;8.18;;;2.60;;
44048;SDS011;29717;47.028;15.470;2022-08-19T11:35:14;5.15;;;2.22;;
44048;SDS011;29717;47.028;15.470;2022-08-19T11:37:41;8.23;;;2.50;;
44048;SDS011;29717;47.028;15.470;2022-08-19T11:40:09;7.18;;;2.83;;
44048;SDS011;29717;47.028;15.470;2022-08-19T11:42:37;3.70;;;2.28;;
44048;SDS011;29717;47.028;15.470;2022-08-19T11:45:26;4.85;;;2.33;;
44048;SDS011;29717;47.028;15.470;2022-08-19T11:47:54;3.72;;;2.42;;
44048;SDS011;29717;47.028;15.470;2022-08-19T11:50:23;5.88;;;2.38;;
44048;SDS011;29717;47.028;15.470;2022-08-19T11:52:53;4.05;;;2.20;;
44048;SDS011;29717;47.028;15.470;2022-08-19T11:55:20;5.57;;;2.35;;
44048;SDS011;29717;47.028;15.470;2022-08-19T11:57:48;7.28;;;2.72;;
44048;SDS011;29717;47.028;15.470;2022-08-19T12:00:17;6.03;;;2.40;;
44048;SDS011;29717;47.028;15.470;2022-08-19T12:02:43;5.18;;;2.20;;
44048;SDS011;29717;47.028;15.470;2022-08-19T12:05:13;8.05;;;2.25;;
44048;SDS011;29717;47.028;15.470;2022-08-19T12:07:40;11.95;;;2.63;;
44048;SDS011;29717;47.028;15.470;2022-08-19T12:10:09;3.72;;;2.15;;
44048;SDS011;29717;47.028;15.470;2022-08-19T12:12:36;7.15;;;2.90;;
44048;SDS011;29717;47.028;15.470;2022-08-19T12:15:11;6.72;;;2.53;;
44048;SDS011;29717;47.028;15.470;2022-08-19T12:17:38;8.65;;;2.70;;
44048;SDS011;29717;47.028;15.470;2022-08-19T12:20:05;6.82;;;2.80;;
44048;SDS011;29717;47.028;15.470;2022-08-19T12:22:34;7.30;;;2.70;;
44048;SDS011;29717;47.028;15.470;2022-08-19T12:25:01;7.03;;;2.50;;
44048;SDS011;29717;47.028;15.470;2022-08-19T12:27:28;7.28;;;2.25;;
44048;SDS011;29717;47.028;15.470;2022-08-19T12:29:55;9.25;;;2.25;;
44048;SDS011;29717;47.028;15.470;2022-08-19T12:32:23;7.85;;;2.17;;
44048;SDS011;29717;47.028;15.470;2022-08-19T12:34:51;7.45;;;2.42;;
44048;SDS011;29717;47.028;15.470;2022-08-19T12:37:18;5.53;;;2.08;;
44048;SDS011;29717;47.028;15.470;2022-08-19T12:39:45;6.18;;;1.90;;
44048;SDS011;29717;47.028;15.470;2022-08-19T12:42:13;7.88;;;2.42;;
44048;SDS011;29717;47.028;15.470;2022-08-19T12:44:40;12.00;;;2.50;;
44048;SDS011;29717;47.028;15.470;2022-08-19T12:47:08;7.78;;;2.55;;
44048;SDS011;29717;47.028;15.470;2022-08-19T12:49:37;5.97;;;2.40;;
44048;SDS011;29717;47.028;15.470;2022-08-19T12:52:05;6.05;;;2.20;;
44048;SDS011;29717;47.028;15.470;2022-08-19T12:54:32;8.05;;;2.30;;
44048;SDS011;29717;47.028;15.470;2022-08-19T12:56:59;6.82;;;2.47;;
44048;SDS011;29717;47.028;15.470;2022-08-19T12:59:26;6.80;;;2.40;;
44048;SDS011;29717;47.028;15.470;2022-08-19T13:01:53;8.45;;;2.70;;
44048;SDS011;29717;47.028;15.470;2022-08-19T13:04:20;4.53;;;2.20;;
44048;SDS011;29717;47.028;15.470;2022-08-19T13:06:48;7.13;;;2.42;;
44048;SDS011;29717;47.028;15.470;2022-08-19T13:09:16;9.38;;;3.00;;
44048;SDS011;29717;47.028;15.470;2022-08-19T13:11:43;8.48;;;2.72;;
44048;SDS011;29717;47.028;15.470;2022-08-19T13:14:12;7.00;;;2.50;;
44048;SDS011;29717;47.028;15.470;2022-08-19T13:16:39;7.45;;;2.17;;
44048;SDS011;29717;47.028;15.470;2022-08-19T13:19:06;7.65;;;2.35;;
44048;SDS011;29717;47.028;15.470;2022-08-19T13:21:33;7.80;;;2.55;;
44048;SDS011;29717;47.028;15.470;2022-08-19T13:24:01;10.70;;;2.55;;
44048;SDS011;29717;47.028;15.470;2022-08-19T13:26:28;7.28;;;2.45;;
44048;SDS011;29717;47.028;15.470;2022-08-19T13:28:55;6.70;;;2.35;;
44048;SDS011;29717;47.028;15.470;2022-08-19T13:31:40;6.75;;;2.45;;
44048;SDS011;29717;47.028;15.470;2022-08-19T13:34:26;9.88;;;2.80;;
44048;SDS011;29717;47.028;15.470;2022-08-19T13:36:53;7.97;;;2.97;;
44048;SDS011;29717;47.028;15.470;2022-08-19T13:39:21;8.60;;;2.47;;
44048;SDS011;29717;47.028;15.470;2022-08-19T13:41:49;5.95;;;2.55;;
44048;SDS011;29717;47.028;15.470;2022-08-19T13:44:15;8.45;;;2.20;;
44048;SDS011;29717;47.028;15.470;2022-08-19T13:46:43;6.82;;;2.33;;
44048;SDS011;29717;47.028;15.470;2022-08-19T13:49:10;6.68;;;2.67;;
44048;SDS011;29717;47.028;15.470;2022-08-19T13:51:38;10.02;;;2.95;;
44048;SDS011;29717;47.028;15.470;2022-08-19T13:54:06;6.15;;;2.40;;
44048;SDS011;29717;47.028;15.470;2022-08-19T13:56:35;8.55;;;2.35;;
44048;SDS011;29717;47.028;15.470;2022-08-19T13:59:02;10.27;;;2.45;;
44048;SDS011;29717;47.028;15.470;2022-08-19T14:01:28;8.07;;;2.75;;
44048;SDS011;29717;47.028;15.470;2022-08-19T14:03:55;7.80;;;2.50;;
44048;SDS011;29717;47.028;15.470;2022-08-19T14:06:22;7.57;;;2.40;;
44048;SDS011;29717;47.028;15.470;2022-08-19T14:08:50;13.70;;;3.47;;
44048;SDS011;29717;47.028;15.470;2022-08-19T14:11:17;9.82;;;2.67;;
44048;SDS011;29717;47.028;15.470;2022-08-19T14:13:46;12.02;;;2.90;;
44048;SDS011;29717;47.028;15.470;2022-08-19T14:16:13;7.93;;;2.55;;
44048;SDS011;29717;47.028;15.470;2022-08-19T14:18:40;8.27;;;2.50;;
44048;SDS011;29717;47.028;15.470;2022-08-19T14:21:07;8.50;;;2.67;;
44048;SDS011;29717;47.028;15.470;2022-08-19T14:23:35;9.25;;;2.55;;
44048;SDS011;29717;47.028;15.470;2022-08-19T14:26:06;6.80;;;2.50;;
44048;SDS011;29717;47.028;15.470;2022-08-19T14:28:33;5.57;;;2.60;;
44048;SDS011;29717;47.028;15.470;2022-08-19T14:31:01;9.52;;;2.90;;
44048;SDS011;29717;47.028;15.470;2022-08-19T14:33:28;9.50;;;3.05;;
44048;SDS011;29717;47.028;15.470;2022-08-19T14:35:55;12.35;;;3.10;;
44048;SDS011;29717;47.028;15.470;2022-08-19T14:38:23;7.65;;;2.90;;
44048;SDS011;29717;47.028;15.470;2022-08-19T14:40:50;8.10;;;2.42;;
44048;SDS011;29717;47.028;15.470;2022-08-19T14:43:17;7.03;;;3.00;;
44048;SDS011;29717;47.028;15.470;2022-08-19T14:45:45;6.65;;;2.42;;
44048;SDS011;29717;47.028;15.470;2022-08-19T14:48:13;13.75;;;2.88;;
44048;SDS011;29717;47.028;15.470;2022-08-19T14:50:39;9.45;;;3.13;;
44048;SDS011;29717;47.028;15.470;2022-08-19T14:53:07;16.67;;;3.67;;
44048;SDS011;29717;47.028;15.470;2022-08-19T14:55:34;9.52;;;3.15;;
44048;SDS011;29717;47.028;15.470;2022-08-19T14:58:01;10.65;;;3.17;;
44048;SDS011;29717;47.028;15.470;2022-08-19T15:00:29;5.75;;;2.75;;
44048;SDS011;29717;47.028;15.470;2022-08-19T15:02:55;9.43;;;3.17;;
44048;SDS011;29717;47.028;15.470;2022-08-19T15:05:23;10.70;;;3.00;;
44048;SDS011;29717;47.028;15.470;2022-08-19T15:07:50;11.43;;;3.85;;
44048;SDS011;29717;47.028;15.470;2022-08-19T15:10:19;8.75;;;3.00;;
44048;SDS011;29717;47.028;15.470;2022-08-19T15:12:46;11.00;;;3.15;;
44048;SDS011;29717;47.028;15.470;2022-08-19T15:15:16;9.50;;;2.70;;
44048;SDS011;29717;47.028;15.470;2022-08-19T15:17:44;16.65;;;4.97;;
44048;SDS011;29717;47.028;15.470;2022-08-19T15:20:15;12.85;;;3.40;;
44048;SDS011;29717;47.028;15.470;2022-08-19T15:22:43;7.53;;;2.40;;
44048;SDS011;29717;47.028;15.470;2022-08-19T15:25:11;7.25;;;2.90;;
44048;SDS011;29717;47.028;15.470;2022-08-19T15:27:40;6.70;;;2.85;;
44048;SDS011;29717;47.028;15.470;2022-08-19T15:30:08;6.28;;;2.47;;
44048;SDS011;29717;47.028;15.470;2022-08-19T15:32:35;6.30;;;2.72;;
44048;SDS011;29717;47.028;15.470;2022-08-19T15:35:02;10.80;;;3.40;;
44048;SDS011;29717;47.028;15.470;2022-08-19T15:37:29;5.78;;;2.50;;
44048;SDS011;29717;47.028;15.470;2022-08-19T15:39:58;7.30;;;2.60;;